Time;durP1;ratioP1;P1;durP2;ratioP2;P2;SDS_P1;SDS_P2;PMS_P1;PMS_P2;Temp;Humidity;BMP_temperature;BMP_pressure;BME280_temperature;BME280_humidity;BME280_pressure;Samples;Min_cycle;Max_cycle;Signal;HPM_P1;HPM_P2
2024/01/06 00:00:18;;;;;;;37.38;22.77;;;;;;;;;;5075509;28;20035;-65
2024/01/06 00:02:44;;;;;;;45.75;27.88;;;;;;;;;;5075726;28;20033;-65
2024/01/06 00:05:09;;;;;;;43.78;26.50;;;;;;;;;;5075769;28;20024;-65
2024/01/06 00:07:34;;;;;;;44.15;26.05;;;;;;;;;;5075295;28;20089;-65
2024/01/06 00:10:00;;;;;;;57.45;32.30;;;;;;;;;;5057142;28;20466;-67
2024/01/06 00:12:25;;;;;;;43.65;25.27;;;;;;;;;;5074857;28;20040;-66
2024/01/06 00:14:51;;;;;;;39.70;24.70;;;;;;;;;;5075328;28;20083;-66
2024/01/06 00:17:16;;;;;;;35.60;22.33;;;;;;;;;;5074701;28;20024;-66
2024/01/06 00:19:42;;;;;;;35.47;21.65;;;;;;;;;;5038391;28;20058;-66
2024/01/06 00:22:08;;;;;;;43.67;24.50;;;;;;;;;;5073324;28;20043;-68
2024/01/06 00:24:33;;;;;;;34.55;22.13;;;;;;;;;;5055821;28;20063;-64
2024/01/06 00:27:00;;;;;;;34.15;21.25;;;;;;;;;;5073523;28;20032;-64
2024/01/06 00:29:25;;;;;;;38.83;22.48;;;;;;;;;;5074134;28;20032;-68
2024/01/06 00:31:53;;;;;;;34.83;22.08;;;;;;;;;;5073842;28;20050;-68
2024/01/06 00:34:18;;;;;;;39.22;23.63;;;;;;;;;;5056859;28;20036;-65
2024/01/06 00:36:47;;;;;;;40.63;22.77;;;;;;;;;;5074576;28;20112;-68
2024/01/06 00:39:13;;;;;;;38.30;22.85;;;;;;;;;;5074853;28;20477;-66
2024/01/06 00:41:38;;;;;;;38.15;22.95;;;;;;;;;;5074600;28;20032;-70
2024/01/06 00:44:04;;;;;;;38.83;22.13;;;;;;;;;;5055664;28;20075;-70
2024/01/06 00:46:29;;;;;;;39.97;24.92;;;;;;;;;;5073600;28;20040;-71
2024/01/06 00:48:55;;;;;;;38.00;22.85;;;;;;;;;;5073228;28;20043;-71
2024/01/06 00:51:20;;;;;;;37.80;22.73;;;;;;;;;;5087415;22;20044;-71
2024/01/06 00:53:47;;;;;;;37.78;23.50;;;;;;;;;;5087154;22;20125;-71
2024/01/06 00:56:12;;;;;;;35.25;21.95;;;;;;;;;;5056064;28;20032;-71
2024/01/06 00:58:49;;;;;;;37.40;22.58;;;;;;;;;;5074456;28;20036;-71
2024/01/06 01:01:14;;;;;;;36.83;21.30;;;;;;;;;;5088404;22;20044;-69
2024/01/06 01:03:39;;;;;;;36.28;21.67;;;;;;;;;;5041729;22;1137508;-69
2024/01/06 01:06:05;;;;;;;31.65;20.80;;;;;;;;;;5055681;28;20048;-70
2024/01/06 01:08:30;;;;;;;31.25;20.08;;;;;;;;;;5073785;28;20017;-69
2024/01/06 01:10:56;;;;;;;33.15;20.88;;;;;;;;;;5074018;28;20119;-69
2024/01/06 01:13:22;;;;;;;29.02;19.08;;;;;;;;;;5074023;28;20085;-69
2024/01/06 01:15:48;;;;;;;33.40;21.00;;;;;;;;;;5039496;28;20041;-69
2024/01/06 01:18:14;;;;;;;32.70;20.48;;;;;;;;;;5074084;28;20102;-69
2024/01/06 01:20:41;;;;;;;33.05;20.30;;;;;;;;;;5073644;28;20447;-70
2024/01/06 01:23:07;;;;;;;28.42;18.27;;;;;;;;;;5073130;28;20051;-70
2024/01/06 01:25:32;;;;;;;31.80;19.60;;;;;;;;;;5073543;28;20037;-70
2024/01/06 01:27:58;;;;;;;36.38;20.95;;;;;;;;;;5072759;28;20032;-70
2024/01/06 01:30:23;;;;;;;30.70;19.17;;;;;;;;;;5038024;28;20028;-70
2024/01/06 01:32:48;;;;;;;32.75;20.33;;;;;;;;;;5073521;28;20021;-68
2024/01/06 01:35:14;;;;;;;36.58;21.55;;;;;;;;;;5073827;28;20024;-68
2024/01/06 01:37:39;;;;;;;33.22;19.95;;;;;;;;;;5074128;28;20108;-68
2024/01/06 01:40:05;;;;;;;33.90;20.73;;;;;;;;;;5073756;28;20013;-68
2024/01/06 01:42:31;;;;;;;36.08;20.80;;;;;;;;;;5074058;28;20032;-68
2024/01/06 01:44:56;;;;;;;33.90;20.55;;;;;;;;;;5073779;28;20020;-68
2024/01/06 01:47:21;;;;;;;32.60;19.90;;;;;;;;;;5074032;28;20036;-68
2024/01/06 01:49:47;;;;;;;34.75;19.77;;;;;;;;;;5055439;28;20158;-68
2024/01/06 01:52:13;;;;;;;31.45;19.40;;;;;;;;;;5073388;28;20050;-68
2024/01/06 01:54:40;;;;;;;32.13;19.40;;;;;;;;;;5055670;28;20036;-68
2024/01/06 01:57:05;;;;;;;29.58;18.45;;;;;;;;;;5073400;28;20033;-68
2024/01/06 01:59:31;;;;;;;29.60;18.33;;;;;;;;;;5073657;28;20036;-69
2024/01/06 02:01:56;;;;;;;30.52;18.95;;;;;;;;;;5073619;28;20033;-69
2024/01/06 02:04:22;;;;;;;31.60;18.88;;;;;;;;;;5055489;28;20052;-69
2024/01/06 02:06:48;;;;;;;30.42;18.65;;;;;;;;;;5055401;28;20114;-69
2024/01/06 02:09:13;;;;;;;27.80;18.10;;;;;;;;;;5074171;28;20032;-69
2024/01/06 02:11:38;;;;;;;29.80;18.08;;;;;;;;;;5073192;28;20024;-69
2024/01/06 02:14:04;;;;;;;30.70;18.23;;;;;;;;;;5073788;28;20412;-70
2024/01/06 02:16:29;;;;;;;30.13;17.15;;;;;;;;;;5073364;28;20116;-69
2024/01/06 02:18:57;;;;;;;27.85;17.17;;;;;;;;;;5055545;28;20410;-69
2024/01/06 02:21:23;;;;;;;30.00;18.00;;;;;;;;;;5058349;28;20074;-70
2024/01/06 02:23:48;;;;;;;30.45;18.65;;;;;;;;;;5058373;28;20098;-70
2024/01/06 02:26:14;;;;;;;29.55;18.67;;;;;;;;;;5076037;28;20024;-70
2024/01/06 02:28:40;;;;;;;31.38;18.67;;;;;;;;;;5075538;28;20017;-69
2024/01/06 02:31:05;;;;;;;36.00;21.17;;;;;;;;;;5057470;28;20020;-68
2024/01/06 02:33:31;;;;;;;34.15;20.52;;;;;;;;;;5057288;28;20043;-68
2024/01/06 02:35:56;;;;;;;35.17;20.75;;;;;;;;;;5040995;28;20021;-72
2024/01/06 02:38:22;;;;;;;42.05;23.55;;;;;;;;;;5075094;28;20474;-69
2024/01/06 02:40:47;;;;;;;42.92;22.17;;;;;;;;;;5057207;28;20119;-71
2024/01/06 02:43:13;;;;;;;54.22;23.05;;;;;;;;;;5074998;28;20170;-71
2024/01/06 02:45:40;;;;;;;58.05;23.58;;;;;;;;;;5074722;28;20281;-70
2024/01/06 02:48:05;;;;;;;52.55;22.13;;;;;;;;;;5074707;28;20036;-71
2024/01/06 02:50:31;;;;;;;41.97;21.70;;;;;;;;;;5057353;28;20378;-71
2024/01/06 02:52:56;;;;;;;45.28;20.75;;;;;;;;;;5075420;28;20035;-72
2024/01/06 02:58:08;;;;;;;42.75;20.33;;;;;;;;;;5034980;28;20041;-71
2024/01/06 03:00:33;;;;;;;46.70;22.70;;;;;;;;;;5002849;28;20099;-71
2024/01/06 03:03:11;;;;;;;48.47;28.23;;;;;;;;;;5002233;28;20480;-71
2024/01/06 03:05:36;;;;;;;48.17;25.95;;;;;;;;;;5036757;28;20112;-69
2024/01/06 03:08:02;;;;;;;45.80;24.02;;;;;;;;;;5018530;28;20116;-67
2024/01/06 03:17:00;;;;;;;29.33;17.63;;;;;;;;;;5063631;22;20061;-67
2024/01/06 03:19:27;;;;;;;30.63;17.95;;;;;;;;;;5055935;28;20104;-67
2024/01/06 03:25:50;;;;;;;41.42;19.40;;;;;;;;;;5082539;22;20044;-68
2024/01/06 03:28:15;;;;;;;41.15;19.98;;;;;;;;;;5058281;28;20020;-69
2024/01/06 03:30:50;;;;;;;38.55;19.15;;;;;;;;;;5057147;28;20390;-68
2024/01/06 03:33:16;;;;;;;46.85;21.40;;;;;;;;;;5041389;28;20033;-69
2024/01/06 03:35:41;;;;;;;44.08;22.45;;;;;;;;;;5057676;28;20090;-70
2024/01/06 03:38:06;;;;;;;46.58;21.23;;;;;;;;;;5075903;28;20020;-70
2024/01/06 03:40:32;;;;;;;39.83;22.48;;;;;;;;;;5075780;28;20413;-71
2024/01/06 03:42:57;;;;;;;37.40;22.75;;;;;;;;;;5058218;28;20425;-69
2024/01/06 03:45:23;;;;;;;37.60;21.85;;;;;;;;;;5076109;28;20060;-69
2024/01/06 03:47:48;;;;;;;43.65;22.45;;;;;;;;;;5057935;28;20103;-69
2024/01/06 03:50:14;;;;;;;38.22;21.05;;;;;;;;;;5075843;28;20032;-68
2024/01/06 03:52:39;;;;;;;42.85;20.92;;;;;;;;;;5075570;28;20040;-69
2024/01/06 03:55:05;;;;;;;36.25;20.00;;;;;;;;;;5075938;28;20009;-69
2024/01/06 03:57:31;;;;;;;36.78;19.50;;;;;;;;;;5075537;28;20374;-70
2024/01/06 03:59:57;;;;;;;38.55;19.42;;;;;;;;;;5075215;28;20390;-70
2024/01/06 04:02:22;;;;;;;39.63;19.50;;;;;;;;;;5075426;28;20103;-70
2024/01/06 04:04:47;;;;;;;39.50;20.25;;;;;;;;;;5075132;28;20501;-70
2024/01/06 04:07:13;;;;;;;41.08;20.15;;;;;;;;;;5075074;28;20033;-70
2024/01/06 04:09:41;;;;;;;38.85;18.80;;;;;;;;;;5057447;28;20374;-69
2024/01/06 04:12:07;;;;;;;33.08;18.45;;;;;;;;;;5074898;28;20043;-69
2024/01/06 04:14:32;;;;;;;32.97;18.00;;;;;;;;;;5057392;28;20024;-70
2024/01/06 04:16:57;;;;;;;34.42;19.73;;;;;;;;;;5075154;28;20024;-70
2024/01/06 04:19:23;;;;;;;53.17;25.95;;;;;;;;;;5075066;28;20055;-69
2024/01/06 04:21:48;;;;;;;201.82;145.98;;;;;;;;;;5074756;28;20081;-69
2024/01/06 04:24:13;;;;;;;189.05;134.50;;;;;;;;;;5074887;28;20040;-69
2024/01/06 04:26:39;;;;;;;75.72;51.45;;;;;;;;;;5074700;28;20036;-69
2024/01/06 04:29:04;;;;;;;42.95;28.95;;;;;;;;;;5040109;28;20086;-69
2024/01/06 04:31:30;;;;;;;35.58;23.02;;;;;;;;;;5056570;28;20386;-69
2024/01/06 04:33:55;;;;;;;37.95;22.95;;;;;;;;;;5075115;28;20390;-69
2024/01/06 04:36:20;;;;;;;37.42;23.88;;;;;;;;;;5074767;28;20031;-70
2024/01/06 04:38:46;;;;;;;50.30;26.52;;;;;;;;;;5056526;28;20021;-70
2024/01/06 04:41:11;;;;;;;52.75;26.95;;;;;;;;;;5074790;28;20343;-71
2024/01/06 04:43:36;;;;;;;39.55;23.15;;;;;;;;;;5074813;28;20032;-70
2024/01/06 04:46:02;;;;;;;37.83;22.45;;;;;;;;;;5074895;28;20029;-70
2024/01/06 04:48:27;;;;;;;31.63;19.80;;;;;;;;;;5074750;28;20025;-70
2024/01/06 04:50:53;;;;;;;28.00;17.75;;;;;;;;;;5039743;28;20027;-70
2024/01/06 04:53:19;;;;;;;26.00;16.90;;;;;;;;;;5074653;28;20120;-71
2024/01/06 04:55:44;;;;;;;28.40;16.58;;;;;;;;;;5074401;28;20036;-71
2024/01/06 04:58:10;;;;;;;24.38;16.30;;;;;;;;;;5074648;28;20078;-71
2024/01/06 05:01:08;;;;;;;30.48;17.52;;;;;;;;;;5107908;22;20053;-70
2024/01/06 05:03:33;;;;;;;24.25;16.30;;;;;;;;;;5088325;22;20467;-70
2024/01/06 05:05:58;;;;;;;25.45;16.52;;;;;;;;;;5055297;28;20029;-71
2024/01/06 05:08:30;;;;;;;20.17;14.55;;;;;;;;;;5056396;28;20382;-71
2024/01/06 05:10:56;;;;;;;25.67;15.80;;;;;;;;;;5055990;28;20024;-70
2024/01/06 05:13:27;;;;;;;25.23;15.93;;;;;;;;;;5073947;28;20035;-72
2024/01/06 05:15:53;;;;;;;25.05;15.43;;;;;;;;;;5056029;28;20078;-71
2024/01/06 05:18:18;;;;;;;24.08;15.07;;;;;;;;;;5074264;28;20024;-71
2024/01/06 05:20:44;;;;;;;29.98;16.77;;;;;;;;;;5074406;28;20032;-71
2024/01/06 05:23:09;;;;;;;28.48;17.52;;;;;;;;;;5055809;28;20044;-72
2024/01/06 05:25:35;;;;;;;30.92;17.33;;;;;;;;;;5073818;28;20031;-72
2024/01/06 05:28:00;;;;;;;32.70;18.02;;;;;;;;;;5056258;28;20112;-73
2024/01/06 05:30:26;;;;;;;25.98;16.13;;;;;;;;;;5074306;28;20021;-72
2024/01/06 05:32:51;;;;;;;23.33;16.00;;;;;;;;;;5067788;22;20065;-72
2024/01/06 05:35:18;;;;;;;27.75;17.52;;;;;;;;;;5072213;28;20481;-72
2024/01/06 05:37:43;;;;;;;47.40;33.10;;;;;;;;;;5055657;28;20052;-69
2024/01/06 05:40:09;;;;;;;31.05;21.63;;;;;;;;;;5073890;28;20025;-69
2024/01/06 05:42:34;;;;;;;63.72;37.22;;;;;;;;;;5074036;28;20033;-69
2024/01/06 05:45:01;;;;;;;63.63;37.42;;;;;;;;;;5073964;28;20025;-69
2024/01/06 05:47:26;;;;;;;81.20;49.33;;;;;;;;;;5074081;28;20032;-70
2024/01/06 05:49:51;;;;;;;48.17;30.45;;;;;;;;;;5055776;28;20074;-69
2024/01/06 05:52:17;;;;;;;41.63;23.17;;;;;;;;;;5038892;28;20115;-69
2024/01/06 05:54:42;;;;;;;42.25;21.10;;;;;;;;;;5075212;28;20040;-70
2024/01/06 05:57:08;;;;;;;28.15;17.42;;;;;;;;;;5077580;28;20021;-70
2024/01/06 05:59:33;;;;;;;24.13;14.85;;;;;;;;;;5077852;28;20025;-70
2024/01/06 06:01:59;;;;;;;30.65;19.17;;;;;;;;;;5078191;28;20047;-70
2024/01/06 06:04:24;;;;;;;50.00;30.17;;;;;;;;;;5077432;28;20462;-72
2024/01/06 06:06:50;;;;;;;52.88;32.50;;;;;;;;;;5059435;28;20020;-72
2024/01/06 06:09:16;;;;;;;38.22;24.35;;;;;;;;;;5059472;28;20392;-72
2024/01/06 06:11:41;;;;;;;34.25;21.73;;;;;;;;;;5077424;28;20475;-71
2024/01/06 06:14:07;;;;;;;31.75;20.95;;;;;;;;;;5059270;28;20052;-66
2024/01/06 06:16:32;;;;;;;31.30;18.27;;;;;;;;;;5077585;28;20043;-70
2024/01/06 06:18:58;;;;;;;28.63;17.08;;;;;;;;;;5077573;28;20447;-71
2024/01/06 06:21:23;;;;;;;28.15;17.60;;;;;;;;;;5077290;28;20037;-67
2024/01/06 06:23:49;;;;;;;32.10;17.65;;;;;;;;;;5077318;28;20030;-70
2024/01/06 06:26:14;;;;;;;27.63;18.02;;;;;;;;;;5059085;28;20405;-70
2024/01/06 06:28:40;;;;;;;26.40;17.42;;;;;;;;;;5076612;28;20486;-70
2024/01/06 06:31:06;;;;;;;22.73;15.63;;;;;;;;;;5076975;28;20094;-70
2024/01/06 06:33:33;;;;;;;21.60;14.73;;;;;;;;;;5055340;28;20130;-72
2024/01/06 06:35:58;;;;;;;24.38;14.68;;;;;;;;;;5055596;28;20548;-72
2024/01/06 06:38:25;;;;;;;21.55;14.20;;;;;;;;;;5056152;28;20032;-70
2024/01/06 06:40:51;;;;;;;23.67;15.20;;;;;;;;;;5057036;28;20080;-71
2024/01/06 06:43:17;;;;;;;23.55;15.43;;;;;;;;;;5057245;28;20029;-71
2024/01/06 06:45:42;;;;;;;25.88;16.08;;;;;;;;;;5057238;28;20043;-67
2024/01/06 06:48:07;;;;;;;29.50;18.33;;;;;;;;;;5056878;28;20057;-68
2024/01/06 06:50:33;;;;;;;30.02;19.55;;;;;;;;;;5057370;28;20065;-69
2024/01/06 06:53:00;;;;;;;30.65;17.20;;;;;;;;;;5056980;28;20044;-69
2024/01/06 06:55:27;;;;;;;24.23;15.55;;;;;;;;;;5055837;28;20044;-70
2024/01/06 06:57:52;;;;;;;26.13;15.57;;;;;;;;;;5056793;28;20029;-70
2024/01/06 07:00:18;;;;;;;25.55;15.63;;;;;;;;;;5056779;28;20158;-71
2024/01/06 07:02:43;;;;;;;28.25;16.40;;;;;;;;;;5056642;28;20033;-69
2024/01/06 07:05:09;;;;;;;25.45;16.17;;;;;;;;;;5056303;28;20032;-71
2024/01/06 07:07:34;;;;;;;33.60;18.20;;;;;;;;;;5055754;28;20090;-66
2024/01/06 07:10:04;;;;;;;26.75;16.80;;;;;;;;;;5055414;28;20033;-63
2024/01/06 07:12:30;;;;;;;26.25;15.90;;;;;;;;;;5056404;28;20047;-63
2024/01/06 07:14:56;;;;;;;26.05;15.98;;;;;;;;;;5055447;28;20115;-63
2024/01/06 07:17:21;;;;;;;27.58;17.05;;;;;;;;;;5056650;28;20029;-63
2024/01/06 07:19:47;;;;;;;25.63;16.80;;;;;;;;;;5056796;28;20115;-63
2024/01/06 07:22:12;;;;;;;27.75;17.42;;;;;;;;;;5055895;28;20041;-63
2024/01/06 07:24:37;;;;;;;27.98;17.67;;;;;;;;;;5054888;28;20041;-63
2024/01/06 07:27:03;;;;;;;27.92;17.15;;;;;;;;;;5054805;28;20045;-63
2024/01/06 07:29:28;;;;;;;27.60;17.67;;;;;;;;;;5054591;28;20032;-63
2024/01/06 07:31:54;;;;;;;28.50;16.65;;;;;;;;;;5055862;28;20060;-62
2024/01/06 07:34:19;;;;;;;31.52;19.15;;;;;;;;;;5068920;28;20037;-63
2024/01/06 07:36:46;;;;;;;62.35;39.63;;;;;;;;;;5075688;28;20031;-68
2024/01/06 07:39:11;;;;;;;243.48;197.65;;;;;;;;;;5089349;22;20056;-68
2024/01/06 07:41:53;;;;;;;196.50;143.82;;;;;;;;;;5073360;22;20049;-67
2024/01/06 07:44:53;;;;;;;76.97;49.17;;;;;;;;;;5014108;28;20502;-68
2024/01/06 07:47:19;;;;;;;54.00;34.75;;;;;;;;;;5016207;28;20030;-68
2024/01/06 07:49:46;;;;;;;41.65;26.08;;;;;;;;;;5015814;28;20037;-68
2024/01/06 07:52:13;;;;;;;43.50;25.75;;;;;;;;;;5014744;28;20030;-68
2024/01/06 07:54:38;;;;;;;38.75;24.83;;;;;;;;;;5015801;28;20157;-68
2024/01/06 07:57:04;;;;;;;56.80;36.97;;;;;;;;;;5015882;28;20471;-68
2024/01/06 07:59:32;;;;;;;96.78;61.17;;;;;;;;;;5014645;28;20040;-68
2024/01/06 08:01:58;;;;;;;81.82;53.63;;;;;;;;;;5015123;28;20034;-68
2024/01/06 08:04:23;;;;;;;98.93;59.97;;;;;;;;;;5016092;28;20025;-68
2024/01/06 08:06:49;;;;;;;90.65;52.45;;;;;;;;;;5016151;28;20423;-68
2024/01/06 08:09:14;;;;;;;66.30;36.25;;;;;;;;;;5015800;28;20033;-69
2024/01/06 08:11:39;;;;;;;50.83;28.65;;;;;;;;;;5015123;28;20059;-69
2024/01/06 08:14:05;;;;;;;77.45;38.03;;;;;;;;;;5015988;28;20069;-69
2024/01/06 08:16:32;;;;;;;40.75;24.77;;;;;;;;;;5014494;28;20038;-69
2024/01/06 08:18:57;;;;;;;43.53;25.02;;;;;;;;;;5015060;28;20080;-69
2024/01/06 08:21:22;;;;;;;47.85;28.05;;;;;;;;;;5014333;28;20457;-69
2024/01/06 08:23:49;;;;;;;46.70;26.77;;;;;;;;;;5014624;28;20030;-65
2024/01/06 08:26:14;;;;;;;56.67;33.60;;;;;;;;;;5015376;28;20038;-69
2024/01/06 08:28:40;;;;;;;44.55;27.30;;;;;;;;;;4998111;28;20034;-69
2024/01/06 08:31:05;;;;;;;37.58;24.42;;;;;;;;;;5014869;28;20038;-68
2024/01/06 08:33:32;;;;;;;59.70;38.92;;;;;;;;;;5014128;28;20155;-69
2024/01/06 08:35:57;;;;;;;52.08;34.10;;;;;;;;;;5014931;28;20026;-63
2024/01/06 08:38:22;;;;;;;165.52;97.97;;;;;;;;;;5013741;28;20037;-63
2024/01/06 08:40:50;;;;;;;73.03;42.67;;;;;;;;;;5015395;28;20014;-63
2024/01/06 08:43:15;;;;;;;48.53;31.02;;;;;;;;;;5037169;28;20506;-63
2024/01/06 08:45:41;;;;;;;38.17;23.40;;;;;;;;;;5054680;28;20033;-63
2024/01/06 08:48:07;;;;;;;35.92;22.65;;;;;;;;;;5054976;28;20463;-63
2024/01/06 08:50:33;;;;;;;36.42;23.23;;;;;;;;;;5055061;28;20049;-61
2024/01/06 08:52:58;;;;;;;39.15;25.48;;;;;;;;;;5054721;28;20070;-64
2024/01/06 08:55:24;;;;;;;38.00;24.80;;;;;;;;;;5054857;28;20025;-64
2024/01/06 08:57:49;;;;;;;44.03;27.35;;;;;;;;;;5054702;28;20028;-65
2024/01/06 09:00:15;;;;;;;39.58;25.63;;;;;;;;;;5054700;28;20044;-65
2024/01/06 09:02:41;;;;;;;40.95;23.48;;;;;;;;;;5054713;28;20025;-62
2024/01/06 09:05:07;;;;;;;60.00;35.65;;;;;;;;;;5037199;28;20112;-63
2024/01/06 09:07:32;;;;;;;65.00;39.47;;;;;;;;;;5036621;28;20120;-62
2024/01/06 09:09:58;;;;;;;67.47;41.22;;;;;;;;;;5054087;28;20087;-63
2024/01/06 09:12:23;;;;;;;58.00;35.53;;;;;;;;;;5053996;28;20501;-67
2024/01/06 09:14:48;;;;;;;50.08;31.23;;;;;;;;;;5054677;28;20025;-63
2024/01/06 09:17:14;;;;;;;53.35;32.45;;;;;;;;;;5054468;28;20013;-65
2024/01/06 09:19:39;;;;;;;53.67;32.53;;;;;;;;;;5053917;28;20035;-64
2024/01/06 09:22:05;;;;;;;48.75;32.53;;;;;;;;;;5054326;28;20025;-63
2024/01/06 09:24:31;;;;;;;41.22;28.20;;;;;;;;;;5054282;28;20492;-63
2024/01/06 09:26:56;;;;;;;42.78;29.42;;;;;;;;;;5053236;28;20426;-65
2024/01/06 09:29:22;;;;;;;41.97;28.02;;;;;;;;;;5034798;28;20029;-65
2024/01/06 09:31:47;;;;;;;44.60;28.35;;;;;;;;;;5035496;28;20071;-59
2024/01/06 09:34:13;;;;;;;47.90;30.67;;;;;;;;;;5035574;28;20021;-58
2024/01/06 09:36:38;;;;;;;45.83;29.98;;;;;;;;;;5053295;28;20024;-64
2024/01/06 09:39:04;;;;;;;37.45;27.45;;;;;;;;;;5053392;28;20029;-63
2024/01/06 09:41:30;;;;;;;39.38;28.02;;;;;;;;;;5053330;28;20083;-63
2024/01/06 09:43:56;;;;;;;41.58;26.65;;;;;;;;;;5052806;28;20045;-64
2024/01/06 09:46:24;;;;;;;135.38;69.70;;;;;;;;;;5053132;28;20033;-63
2024/01/06 09:48:51;;;;;;;74.78;48.78;;;;;;;;;;5050582;28;20108;-58
2024/01/06 09:51:18;;;;;;;54.83;35.50;;;;;;;;;;5035491;28;20033;-59
2024/01/06 09:53:48;;;;;;;52.38;36.40;;;;;;;;;;5053167;28;20108;-59
2024/01/06 09:56:15;;;;;;;49.65;33.22;;;;;;;;;;5053178;28;20053;-58
2024/01/06 09:58:41;;;;;;;59.22;39.85;;;;;;;;;;5050565;28;20017;-58
2024/01/06 10:01:09;;;;;;;65.75;46.35;;;;;;;;;;5053268;28;20367;-67
2024/01/06 10:03:37;;;;;;;63.28;42.10;;;;;;;;;;5053009;28;20498;-64
2024/01/06 10:06:04;;;;;;;50.60;31.95;;;;;;;;;;5050688;28;20033;-64
2024/01/06 10:08:29;;;;;;;57.55;34.20;;;;;;;;;;5053249;28;20025;-58
2024/01/06 10:10:55;;;;;;;53.42;30.10;;;;;;;;;;5052869;28;20394;-63
2024/01/06 10:13:21;;;;;;;53.58;30.50;;;;;;;;;;5046281;28;20069;-58
2024/01/06 10:15:47;;;;;;;41.03;27.77;;;;;;;;;;5032723;28;20045;-58
2024/01/06 10:18:13;;;;;;;41.75;27.05;;;;;;;;;;5032659;28;20118;-58
2024/01/06 10:20:38;;;;;;;39.92;26.27;;;;;;;;;;5050761;28;20052;-58
2024/01/06 10:23:04;;;;;;;42.00;27.27;;;;;;;;;;5050818;28;20116;-58
2024/01/06 10:25:30;;;;;;;41.67;29.00;;;;;;;;;;5050504;28;20033;-58
2024/01/06 10:27:55;;;;;;;45.72;28.70;;;;;;;;;;5050288;28;20463;-57
2024/01/06 10:30:20;;;;;;;55.10;37.35;;;;;;;;;;5032083;28;20044;-59
2024/01/06 10:32:46;;;;;;;52.75;38.47;;;;;;;;;;5049262;28;20035;-64
2024/01/06 10:35:11;;;;;;;55.30;35.17;;;;;;;;;;5049665;28;20036;-57
2024/01/06 10:37:37;;;;;;;150.82;90.30;;;;;;;;;;5031989;28;20020;-61
2024/01/06 10:40:09;;;;;;;54.97;35.63;;;;;;;;;;5050283;28;20017;-67
2024/01/06 10:42:36;;;;;;;49.75;31.38;;;;;;;;;;5053397;28;20049;-62
2024/01/06 10:45:01;;;;;;;67.47;34.33;;;;;;;;;;5053655;28;20039;-62
2024/01/06 10:47:30;;;;;;;131.40;76.35;;;;;;;;;;5053754;28;20025;-65
2024/01/06 10:49:58;;;;;;;77.80;47.33;;;;;;;;;;5032832;28;20061;-59
2024/01/06 10:52:26;;;;;;;215.90;111.13;;;;;;;;;;5053046;28;20425;-59
2024/01/06 10:54:53;;;;;;;145.27;82.57;;;;;;;;;;5052816;28;20154;-65
2024/01/06 10:57:20;;;;;;;117.10;64.40;;;;;;;;;;5052246;28;20029;-66
2024/01/06 10:59:48;;;;;;;89.68;56.90;;;;;;;;;;5052370;28;20036;-65
2024/01/06 11:02:16;;;;;;;83.88;52.70;;;;;;;;;;5052071;28;20090;-67
2024/01/06 11:04:41;;;;;;;115.13;85.57;;;;;;;;;;5052735;28;20028;-67
2024/01/06 11:07:07;;;;;;;66.05;43.60;;;;;;;;;;5035802;28;20047;-63
2024/01/06 11:09:34;;;;;;;61.92;39.63;;;;;;;;;;5053915;28;20041;-62
2024/01/06 11:12:00;;;;;;;93.90;57.28;;;;;;;;;;5052855;28;20367;-64
2024/01/06 11:14:27;;;;;;;135.52;80.88;;;;;;;;;;5052846;28;20059;-64
2024/01/06 11:16:54;;;;;;;81.35;50.33;;;;;;;;;;5052848;28;20090;-66
2024/01/06 11:19:35;;;;;;;60.75;39.67;;;;;;;;;;5050527;28;20470;-62
2024/01/06 11:22:00;;;;;;;;;;;;;;;;;;5050722;28;20044;-67
2024/01/06 11:24:27;;;;;;;51.72;31.38;;;;;;;;;;5052832;28;19912;-64
2024/01/06 11:26:55;;;;;;;87.13;61.20;;;;;;;;;;5052932;28;20481;-69
2024/01/06 11:29:20;;;;;;;122.72;83.38;;;;;;;;;;5050771;28;20025;-65
2024/01/06 11:32:04;;;;;;;73.65;49.25;;;;;;;;;;5052835;28;20029;-60
2024/01/06 11:34:30;;;;;;;60.45;44.90;;;;;;;;;;5052986;28;20032;-65
2024/01/06 11:36:56;;;;;;;89.35;65.47;;;;;;;;;;5034983;28;20390;-55
2024/01/06 11:39:40;;;;;;;85.57;64.65;;;;;;;;;;5053124;28;20122;-55
2024/01/06 11:42:06;;;;;;;36.15;27.30;;;;;;;;;;5053070;28;20039;-67
2024/01/06 11:44:51;;;;;;;38.92;27.35;;;;;;;;;;5035348;28;20035;-64
2024/01/06 11:47:18;;;;;;;28.55;20.55;;;;;;;;;;5053173;28;20035;-63
2024/01/06 11:49:47;;;;;;;28.98;21.10;;;;;;;;;;5052410;28;20037;-64
2024/01/06 11:52:13;;;;;;;31.42;22.88;;;;;;;;;;5051156;28;20047;-72
2024/01/06 11:54:39;;;;;;;35.13;23.70;;;;;;;;;;5052189;28;20056;-73
2024/01/06 11:57:04;;;;;;;28.60;21.02;;;;;;;;;;5052698;28;20128;-73
2024/01/06 11:59:30;;;;;;;52.17;31.90;;;;;;;;;;5053021;28;20032;-72
2024/01/06 12:01:55;;;;;;;137.80;67.18;;;;;;;;;;5052935;28;20116;-73
2024/01/06 12:04:22;;;;;;;100.53;48.10;;;;;;;;;;5052986;28;20040;-73
2024/01/06 12:06:47;;;;;;;46.45;26.08;;;;;;;;;;5052927;28;20375;-73
2024/01/06 12:09:15;;;;;;;45.10;25.88;;;;;;;;;;5053088;28;20037;-72
2024/01/06 12:11:41;;;;;;;70.25;38.17;;;;;;;;;;5052530;28;20047;-73
2024/01/06 12:14:07;;;;;;;274.08;115.68;;;;;;;;;;5052396;28;20029;-71
2024/01/06 12:16:32;;;;;;;67.97;35.08;;;;;;;;;;5053178;28;20025;-63
2024/01/06 12:19:00;;;;;;;121.93;73.07;;;;;;;;;;5053237;28;20071;-63
2024/01/06 12:21:26;;;;;;;39.13;27.23;;;;;;;;;;5054437;28;20033;-63
2024/01/06 12:23:51;;;;;;;98.65;62.03;;;;;;;;;;5052138;28;20031;-63
2024/01/06 12:26:17;;;;;;;27.33;18.05;;;;;;;;;;5052510;28;20091;-76
2024/01/06 12:28:46;;;;;;;25.58;18.50;;;;;;;;;;5052675;28;20037;-75
2024/01/06 12:31:12;;;;;;;79.20;53.83;;;;;;;;;;5053697;28;20041;-68
2024/01/06 12:33:47;;;;;;;221.05;115.35;;;;;;;;;;5052826;28;20052;-68
2024/01/06 12:36:12;;;;;;;38.70;25.02;;;;;;;;;;5053963;28;20075;-70
2024/01/06 12:38:41;;;;;;;38.20;21.48;;;;;;;;;;5053533;28;20036;-70
2024/01/06 12:41:07;;;;;;;304.50;143.38;;;;;;;;;;5035620;28;20060;-70
2024/01/06 12:43:35;;;;;;;312.33;151.05;;;;;;;;;;5051466;28;20100;-70
2024/01/06 12:46:01;;;;;;;188.60;89.88;;;;;;;;;;5033304;28;20029;-70
2024/01/06 12:48:27;;;;;;;93.05;54.97;;;;;;;;;;5051445;28;20033;-70
2024/01/06 12:50:52;;;;;;;36.17;24.02;;;;;;;;;;5048573;28;20032;-71
2024/01/06 12:53:18;;;;;;;31.48;23.70;;;;;;;;;;5053823;28;20051;-69
2024/01/06 12:55:44;;;;;;;40.35;24.98;;;;;;;;;;5054631;28;20029;-65
2024/01/06 12:58:09;;;;;;;22.98;15.23;;;;;;;;;;5036927;28;20066;-72
2024/01/06 13:00:35;;;;;;;27.42;20.80;;;;;;;;;;5054562;28;20033;-72
2024/01/06 13:03:01;;;;;;;94.85;59.20;;;;;;;;;;5054398;28;20037;-72
2024/01/06 13:05:26;;;;;;;82.32;54.45;;;;;;;;;;5035829;28;20028;-72
2024/01/06 13:07:52;;;;;;;107.20;86.55;;;;;;;;;;5054342;28;20044;-72
2024/01/06 13:10:17;;;;;;;85.72;66.53;;;;;;;;;;5035689;28;20033;-72
2024/01/06 13:12:42;;;;;;;62.78;46.47;;;;;;;;;;5035929;28;20017;-72
2024/01/06 13:15:11;;;;;;;31.05;22.02;;;;;;;;;;5053554;28;20029;-72
2024/01/06 13:17:36;;;;;;;39.63;29.05;;;;;;;;;;5054441;28;20112;-72
2024/01/06 13:20:02;;;;;;;43.75;30.77;;;;;;;;;;5053815;28;20116;-72
2024/01/06 13:22:28;;;;;;;163.25;84.40;;;;;;;;;;5035748;28;20124;-72
2024/01/06 13:24:54;;;;;;;173.95;89.97;;;;;;;;;;5053897;28;20434;-72
2024/01/06 13:27:19;;;;;;;127.30;69.20;;;;;;;;;;5053578;28;20032;-72
2024/01/06 13:29:45;;;;;;;107.38;66.53;;;;;;;;;;5035695;28;20406;-72
2024/01/06 13:32:10;;;;;;;47.35;33.33;;;;;;;;;;5053450;28;20163;-72
2024/01/06 13:34:36;;;;;;;50.75;35.20;;;;;;;;;;5035918;28;20061;-72
2024/01/06 13:37:01;;;;;;;45.85;31.30;;;;;;;;;;5036088;28;20100;-72
2024/01/06 13:39:27;;;;;;;49.33;33.50;;;;;;;;;;5053557;28;20101;-72
2024/01/06 13:41:52;;;;;;;41.05;26.08;;;;;;;;;;5054266;28;20025;-72
2024/01/06 13:44:18;;;;;;;83.43;56.60;;;;;;;;;;5053736;28;20483;-72
2024/01/06 13:46:44;;;;;;;35.28;24.00;;;;;;;;;;5054208;28;20039;-72
2024/01/06 13:49:10;;;;;;;84.13;49.55;;;;;;;;;;5052885;28;20140;-72
2024/01/06 13:51:36;;;;;;;131.52;79.25;;;;;;;;;;5053633;28;20037;-72
2024/01/06 13:54:01;;;;;;;42.45;25.80;;;;;;;;;;5053724;28;20032;-72
2024/01/06 13:56:26;;;;;;;87.13;52.33;;;;;;;;;;5053789;28;20486;-72
2024/01/06 13:58:52;;;;;;;102.13;60.33;;;;;;;;;;5053930;28;20018;-72
2024/01/06 14:01:17;;;;;;;91.57;63.40;;;;;;;;;;5053471;28;20036;-72
2024/01/06 14:03:43;;;;;;;53.08;32.92;;;;;;;;;;5053531;28;20033;-72
2024/01/06 14:06:08;;;;;;;53.05;32.17;;;;;;;;;;5035304;28;20051;-72
2024/01/06 14:08:35;;;;;;;52.08;38.28;;;;;;;;;;5053321;28;20037;-72
2024/01/06 14:11:00;;;;;;;59.53;39.78;;;;;;;;;;5035290;28;20060;-72
2024/01/06 14:13:51;;;;;;;63.95;42.60;;;;;;;;;;5057581;23;20089;-73
2024/01/06 14:16:17;;;;;;;78.20;50.63;;;;;;;;;;5036387;23;20175;-72
2024/01/06 14:18:43;;;;;;;43.08;28.67;;;;;;;;;;5038044;28;20021;-73
2024/01/06 14:21:11;;;;;;;43.58;26.98;;;;;;;;;;5039759;28;20460;-73
2024/01/06 14:23:37;;;;;;;54.97;37.28;;;;;;;;;;5057397;28;20056;-73